createdAt,value
2022-07-27T00:04:43.464Z,77.69
2022-07-27T00:07:53.411Z,77.41
2022-07-27T00:12:12.774Z,77.35
2022-07-27T00:15:20.478Z,77.79
2022-07-27T00:19:38.805Z,77.88
2022-07-27T00:22:45.127Z,78.15
2022-07-27T00:25:53.638Z,78.05
2022-07-27T00:28:59.882Z,78.45
2022-07-27T00:32:12.318Z,78.53
2022-07-27T00:35:19.395Z,78.95
2022-07-27T00:38:25.408Z,78.83
2022-07-27T00:41:34.451Z,78.74
2022-07-27T00:44:39.812Z,79.30
2022-07-27T00:47:46.280Z,79.36
2022-07-27T00:50:52.005Z,79.37
2022-07-27T00:53:58.913Z,79.27
2022-07-27T00:57:07.462Z,79.58
2022-07-27T01:00:14.317Z,80.01
2022-07-27T01:03:19.672Z,80.32
2022-07-27T01:06:29.599Z,80.90
2022-07-27T01:09:51.709Z,80.74
2022-07-27T01:13:00.906Z,80.67
2022-07-27T01:16:09.056Z,81.10
2022-07-27T01:19:18.087Z,80.91
2022-07-27T01:22:26.281Z,81.34
2022-07-27T01:25:32.506Z,81.91
2022-07-27T01:28:37.843Z,82.04
2022-07-27T01:31:44.779Z,82.41
2022-07-27T01:34:50.415Z,82.61
2022-07-27T01:38:01.067Z,82.47
2022-07-27T01:41:07.348Z,82.56
2022-07-27T01:44:13.570Z,82.62
2022-07-27T01:47:19.766Z,82.97
2022-07-27T01:50:25.181Z,83.26
2022-07-27T01:53:34.485Z,83.00
2022-07-27T01:56:39.875Z,83.25
2022-07-27T01:59:46.346Z,83.16
2022-07-27T02:02:51.974Z,83.33
2022-07-27T02:05:58.426Z,83.46
2022-07-27T02:09:06.816Z,83.81
2022-07-27T02:12:28.783Z,84.21
2022-07-27T02:15:42.997Z,84.68
2022-07-27T02:18:51.060Z,85.09
2022-07-27T02:21:56.668Z,85.07
2022-07-27T02:25:06.460Z,85.39
2022-07-27T02:28:12.616Z,85.56
2022-07-27T02:31:19.058Z,85.65
2022-07-27T02:34:24.377Z,86.05
2022-07-27T02:37:30.873Z,86.33
2022-07-27T02:40:39.470Z,86.14
2022-07-27T02:43:45.663Z,86.16
2022-07-27T02:46:51.301Z,86.25
2022-07-27T02:49:57.741Z,86.52
2022-07-27T02:53:03.375Z,86.87
2022-07-27T02:56:12.520Z,86.65
2022-07-27T02:59:18.293Z,86.72
2022-07-27T03:02:24.529Z,86.75
2022-07-27T03:05:30.172Z,86.94
2022-07-27T03:08:36.526Z,86.90
2022-07-27T03:11:45.010Z,87.03
2022-07-27T03:14:51.311Z,86.94
2022-07-27T03:17:57.209Z,87.13
2022-07-27T03:21:04.127Z,87.25
2022-07-27T03:24:10.174Z,87.48
2022-07-27T03:27:19.282Z,87.94
2022-07-27T03:30:24.696Z,87.88
2022-07-27T03:33:30.997Z,87.87
2022-07-27T03:36:36.523Z,88.00
2022-07-27T03:39:43.026Z,88.06
2022-07-27T03:42:51.610Z,88.10
2022-07-27T03:45:57.903Z,88.05
2022-07-27T03:49:03.467Z,87.90
2022-07-27T03:52:21.255Z,87.71
2022-07-27T03:55:27.886Z,87.55
2022-07-27T03:58:37.908Z,87.07
2022-07-27T04:01:43.373Z,87.22
2022-07-27T04:04:49.904Z,86.87
2022-07-27T04:07:55.866Z,86.48
2022-07-27T04:11:03.080Z,86.24
2022-07-27T04:14:12.722Z,85.85
2022-07-27T04:17:54.169Z,85.78
2022-07-27T04:20:45.074Z,85.77
2022-07-27T04:23:51.540Z,85.12
2022-07-27T04:26:57.212Z,84.10
2022-07-27T04:30:09.722Z,83.98
2022-07-27T04:33:15.591Z,83.71
2022-07-27T04:36:21.990Z,83.64
2022-07-27T04:39:27.478Z,83.32
2022-07-27T04:42:33.822Z,83.09
2022-07-27T04:45:42.076Z,83.10
2022-07-27T04:48:49.062Z,82.87
2022-07-27T04:51:57.596Z,82.06
2022-07-27T04:55:03.816Z,82.33
2022-07-27T04:58:10.848Z,81.44
2022-07-27T05:01:19.972Z,81.29
2022-07-27T05:04:25.474Z,80.85
2022-07-27T05:07:32.075Z,80.78
2022-07-27T05:10:37.755Z,80.65
2022-07-27T05:13:44.753Z,80.69
2022-07-27T05:16:53.090Z,79.70
2022-07-27T05:19:59.420Z,80.27
2022-07-27T05:23:06.090Z,79.09
2022-07-27T05:26:12.543Z,77.25
2022-07-27T05:29:17.936Z,76.93
2022-07-27T05:32:27.128Z,77.46
2022-07-27T05:35:32.624Z,77.12
2022-07-27T05:38:41.274Z,78.04
2022-07-27T05:41:46.698Z,76.63
2022-07-27T05:44:58.049Z,77.23
2022-07-27T05:48:06.568Z,76.40
2022-07-27T05:51:12.812Z,75.44
2022-07-27T05:54:19.100Z,74.96
2022-07-27T05:57:25.368Z,74.50
2022-07-27T06:00:32.729Z,74.73
2022-07-27T06:03:43.257Z,75.11
2022-07-27T06:07:04.569Z,75.61
2022-07-27T06:10:11.827Z,76.48
2022-07-27T06:13:17.298Z,76.93
2022-07-27T06:16:23.635Z,75.96
2022-07-27T06:19:36.379Z,76.33
2022-07-27T06:22:50.631Z,74.83
2022-07-27T06:25:56.041Z,74.56
2022-07-27T06:29:09.962Z,74.56
2022-07-27T06:32:16.833Z,74.19
2022-07-27T06:36:33.939Z,72.69
2022-07-27T06:39:42.445Z,72.61
2022-07-27T06:47:33.743Z,71.39
2022-07-27T06:50:39.984Z,70.59
2022-07-27T06:53:46.184Z,70.70
2022-07-27T06:56:55.477Z,71.08
2022-07-27T07:00:00.981Z,70.25
2022-07-27T07:03:09.323Z,69.05
2022-07-27T07:06:15.098Z,68.34
2022-07-27T07:09:22.375Z,69.20
2022-07-27T07:12:32.465Z,68.09
2022-07-27T07:15:40.708Z,67.25
2022-07-27T07:18:51.795Z,68.15
2022-07-27T07:21:58.776Z,67.91
2022-07-27T07:25:04.234Z,67.54
2022-07-27T07:28:13.483Z,67.63
2022-07-27T07:31:20.622Z,68.23
2022-07-27T07:34:27.566Z,67.23
2022-07-27T07:37:33.828Z,67.12
2022-07-27T07:40:43.851Z,66.80
2022-07-27T07:43:53.565Z,66.58
2022-07-27T07:47:00.196Z,67.10
2022-07-27T07:50:09.966Z,66.16
2022-07-27T07:53:17.947Z,66.84
2022-07-27T07:56:23.659Z,66.01
2022-07-27T07:59:32.734Z,65.42
2022-07-27T08:02:46.531Z,65.92
2022-07-27T08:05:52.788Z,65.41
2022-07-27T08:08:58.679Z,64.17
2022-07-27T08:12:05.568Z,64.44
2022-07-27T08:15:15.087Z,66.13
2022-07-27T08:18:22.029Z,65.53
2022-07-27T08:21:29.135Z,64.85
2022-07-27T08:24:44.762Z,66.13
2022-07-27T08:27:50.133Z,64.50
2022-07-27T08:30:59.593Z,64.16
2022-07-27T08:34:06.170Z,64.57
2022-07-27T08:37:15.537Z,64.49
2022-07-27T08:40:41.388Z,64.79
2022-07-27T08:43:52.070Z,65.15
2022-07-27T08:47:01.133Z,63.89
2022-07-27T08:50:23.437Z,64.24
2022-07-27T08:53:52.181Z,63.84
2022-07-27T08:57:00.271Z,63.83
2022-07-27T09:00:08.023Z,64.27
2022-07-27T09:03:20.725Z,64.96
2022-07-27T09:06:43.848Z,65.86
2022-07-27T09:09:50.573Z,66.13
2022-07-27T09:12:56.042Z,66.18
2022-07-27T09:16:20.899Z,65.85
2022-07-27T09:19:29.287Z,65.86
2022-07-27T09:22:51.120Z,65.59
2022-07-27T09:26:29.608Z,64.38
2022-07-27T09:29:38.550Z,63.63
2022-07-27T09:32:55.644Z,64.32
2022-07-27T09:36:06.816Z,63.82
2022-07-27T09:39:12.262Z,64.35
2022-07-27T09:42:59.225Z,63.57
2022-07-27T09:45:51.473Z,64.35
2022-07-27T09:48:58.547Z,63.48
2022-07-27T09:52:07.395Z,63.55
2022-07-27T09:55:14.496Z,62.48
2022-07-27T09:58:20.023Z,63.39
2022-07-27T10:01:28.106Z,62.65
2022-07-27T10:04:36.821Z,61.71
2022-07-27T10:07:46.018Z,61.92
2022-07-27T10:10:52.077Z,61.98
2022-07-27T10:14:00.476Z,60.59
2022-07-27T10:17:12.953Z,59.89
2022-07-27T10:20:21.741Z,60.08
2022-07-27T10:23:35.973Z,60.21
2022-07-27T10:26:44.040Z,60.53
2022-07-27T10:29:50.880Z,59.40
2022-07-27T10:32:57.312Z,59.63
2022-07-27T10:36:04.437Z,58.05
2022-07-27T10:39:13.581Z,57.98
2022-07-27T10:42:35.493Z,57.95
2022-07-27T10:45:59.978Z,57.68
2022-07-27T10:49:21.729Z,58.88
2022-07-27T10:52:45.306Z,56.74
2022-07-27T11:00:17.807Z,57.13
2022-07-27T11:03:24.027Z,56.13
2022-07-27T11:06:48.134Z,58.19
2022-07-27T11:10:05.227Z,56.45
2022-07-27T11:13:10.938Z,56.94
2022-07-27T11:16:28.520Z,56.74
2022-07-27T11:19:33.997Z,57.14
2022-07-27T11:26:07.395Z,56.06
2022-07-27T11:29:16.047Z,56.31
2022-07-27T11:32:25.232Z,57.39
2022-07-27T11:35:31.472Z,53.91
2022-07-27T11:38:48.853Z,54.67
2022-07-27T11:42:11.883Z,54.35
2022-07-27T11:45:31.787Z,53.92
2022-07-27T11:49:05.087Z,54.19
2022-07-27T11:52:09.678Z,53.11
2022-07-27T11:55:15.968Z,53.65
2022-07-27T11:58:21.267Z,53.15
2022-07-27T12:01:32.443Z,53.21
2022-07-27T12:04:42.148Z,52.39
2022-07-27T12:07:48.474Z,52.00
2022-07-27T12:11:01.190Z,51.50
2022-07-27T12:14:15.219Z,51.41
2022-07-27T12:17:31.848Z,50.36
2022-07-27T12:20:40.927Z,51.55
2022-07-27T12:23:52.898Z,51.33
2022-07-27T12:27:07.341Z,50.76
2022-07-27T12:30:15.694Z,50.55
2022-07-27T12:33:30.039Z,50.77
2022-07-27T12:36:44.575Z,49.97
2022-07-27T12:39:53.397Z,50.38
2022-07-27T12:43:00.762Z,49.72
2022-07-27T12:46:15.848Z,48.42
2022-07-27T12:49:21.332Z,49.02
2022-07-27T12:52:30.665Z,50.25
2022-07-27T12:55:36.252Z,48.79
2022-07-27T12:58:42.584Z,48.98
2022-07-27T13:01:48.276Z,49.57
2022-07-27T13:04:55.161Z,49.72
2022-07-27T13:08:03.586Z,49.69
2022-07-27T13:11:10.112Z,49.10
2022-07-27T13:14:19.412Z,48.44
2022-07-27T13:17:25.827Z,48.30
2022-07-27T13:20:31.428Z,48.72
2022-07-27T13:23:40.583Z,49.29
2022-07-27T13:26:45.943Z,49.25
2022-07-27T13:29:52.154Z,48.54
2022-07-27T13:32:57.796Z,48.86
2022-07-27T13:36:05.355Z,47.70
2022-07-27T13:39:15.567Z,47.30
2022-07-27T13:42:22.032Z,47.62
2022-07-27T13:45:28.309Z,48.78
2022-07-27T13:48:48.511Z,47.49
2022-07-27T13:51:54.001Z,47.77
2022-07-27T13:55:03.088Z,46.71
2022-07-27T13:58:14.133Z,46.03
2022-07-27T14:01:20.400Z,46.42
2022-07-27T14:04:28.556Z,46.48
2022-07-27T14:07:35.055Z,46.78
2022-07-27T14:10:48.347Z,45.97
2022-07-27T14:13:57.886Z,46.27
2022-07-27T14:17:03.375Z,46.36
2022-07-27T14:20:15.195Z,45.99
2022-07-27T14:23:20.598Z,45.92
2022-07-27T14:26:29.618Z,45.20
2022-07-27T14:29:34.976Z,45.10
2022-07-27T14:32:41.176Z,44.81
2022-07-27T14:35:47.437Z,44.61
2022-07-27T14:38:53.755Z,43.71
2022-07-27T14:42:03.621Z,43.91
2022-07-27T14:45:11.823Z,43.24
2022-07-27T14:48:25.293Z,42.95
2022-07-27T14:51:34.614Z,43.63
2022-07-27T14:54:39.968Z,43.02
2022-07-27T14:57:49.351Z,42.17
2022-07-27T15:00:55.666Z,42.64
2022-07-27T15:04:03.300Z,42.34
2022-07-27T15:07:09.062Z,42.17
2022-07-27T15:10:15.626Z,40.57
2022-07-27T15:13:23.854Z,41.96
2022-07-27T15:16:31.346Z,42.11
2022-07-27T15:19:36.833Z,42.46
2022-07-27T15:22:43.394Z,41.89
2022-07-27T15:25:49.075Z,41.84
2022-07-27T15:28:58.364Z,40.96
2022-07-27T15:32:03.971Z,41.51
2022-07-27T15:35:10.837Z,40.33
2022-07-27T15:38:16.192Z,39.38
2022-07-27T15:41:22.475Z,38.35
2022-07-27T15:44:30.780Z,37.25
2022-07-27T15:47:37.594Z,36.64
2022-07-27T15:50:48.757Z,35.49
2022-07-27T15:53:56.145Z,36.45
2022-07-27T15:57:03.131Z,37.19
2022-07-27T16:00:14.052Z,38.37
2022-07-27T16:03:21.722Z,40.71
2022-07-27T16:06:28.079Z,40.69
2022-07-27T16:09:33.525Z,41.74
2022-07-27T16:12:39.924Z,42.39
2022-07-27T16:16:18.632Z,43.62
2022-07-27T16:19:24.922Z,44.50
2022-07-27T16:22:32.137Z,44.83
2022-07-27T16:26:02.019Z,46.33
2022-07-27T16:29:03.944Z,46.88
2022-07-27T16:32:13.274Z,47.77
2022-07-27T16:35:18.634Z,47.44
2022-07-27T16:38:25.836Z,47.43
2022-07-27T16:41:31.301Z,48.05
2022-07-27T16:44:39.945Z,48.91
2022-07-27T16:47:48.282Z,50.10
2022-07-27T16:50:54.548Z,49.67
2022-07-27T16:54:00.016Z,50.38
2022-07-27T16:57:08.195Z,50.43
2022-07-27T17:00:14.477Z,50.87
2022-07-27T17:03:24.619Z,52.37
2022-07-27T17:06:32.038Z,52.92
2022-07-27T17:09:38.300Z,53.09
2022-07-27T17:12:43.932Z,54.69
2022-07-27T17:15:55.024Z,54.52
2022-07-27T17:19:03.232Z,54.12
2022-07-27T17:22:09.743Z,55.32
2022-07-27T17:25:15.221Z,55.66
2022-07-27T17:28:21.469Z,55.72
2022-07-27T17:31:26.943Z,55.91
2022-07-27T17:34:36.005Z,57.09
2022-07-27T17:38:04.445Z,57.32
2022-07-27T17:41:08.000Z,56.58
2022-07-27T17:44:13.378Z,57.65
2022-07-27T17:47:19.646Z,57.39
2022-07-27T17:50:27.909Z,57.02
2022-07-27T17:53:34.194Z,57.23
2022-07-27T17:59:46.623Z,57.21
2022-07-27T18:02:52.625Z,57.25
2022-07-27T18:06:03.393Z,57.71
2022-07-27T18:09:09.208Z,58.03
2022-07-27T18:12:21.591Z,58.09
2022-07-27T18:15:42.832Z,58.33
2022-07-27T18:18:49.071Z,58.47
2022-07-27T18:21:57.537Z,58.53
2022-07-27T18:25:03.789Z,58.21
2022-07-27T18:28:09.205Z,58.17
2022-07-27T18:31:18.331Z,58.66
2022-07-27T18:34:23.757Z,58.13
2022-07-27T18:37:32.840Z,58.54
2022-07-27T18:40:38.316Z,58.75
2022-07-27T18:43:51.177Z,58.34
2022-07-27T18:46:56.631Z,59.15
2022-07-27T18:50:03.223Z,59.05
2022-07-27T18:53:12.065Z,59.64
2022-07-27T18:56:18.497Z,59.66
2022-07-27T18:59:24.004Z,59.74
2022-07-27T19:02:35.835Z,60.23
2022-07-27T19:05:45.048Z,59.87
2022-07-27T19:08:54.953Z,60.00
2022-07-27T19:12:01.835Z,59.87
2022-07-27T19:15:11.160Z,60.11
2022-07-27T19:18:16.551Z,60.17
2022-07-27T19:21:23.249Z,60.44
2022-07-27T19:24:32.022Z,61.09
2022-07-27T19:27:38.536Z,61.42
2022-07-27T19:30:44.332Z,61.17
2022-07-27T19:33:51.267Z,61.48
2022-07-27T19:36:57.127Z,61.04
2022-07-27T19:40:33.727Z,61.22
2022-07-27T19:43:33.768Z,61.67
2022-07-27T19:46:41.347Z,62.34
2022-07-27T19:49:46.759Z,62.60
2022-07-27T19:52:53.285Z,62.99
2022-07-27T19:56:03.045Z,63.66
2022-07-27T19:59:10.002Z,63.83
2022-07-27T20:02:16.910Z,64.09
2022-07-27T20:05:23.292Z,64.47
2022-07-27T20:08:29.803Z,63.92
2022-07-27T20:11:39.323Z,64.15
2022-07-27T20:14:44.758Z,64.06
2022-07-27T20:17:51.166Z,64.79
2022-07-27T20:20:57.141Z,64.72
2022-07-27T20:24:04.606Z,64.60
2022-07-27T20:27:13.245Z,64.57
2022-07-27T20:30:21.231Z,64.16
2022-07-27T20:33:31.070Z,63.81
2022-07-27T20:36:38.984Z,63.46
2022-07-27T20:39:44.663Z,63.32
2022-07-27T20:42:53.690Z,62.66
2022-07-27T20:45:59.510Z,62.27
2022-07-27T20:49:08.222Z,62.01
2022-07-27T20:52:13.642Z,61.70
2022-07-27T20:55:19.928Z,61.29
2022-07-27T20:58:28.084Z,61.50
2022-07-27T21:01:34.447Z,61.73
2022-07-27T21:04:40.224Z,61.52
2022-07-27T21:07:46.860Z,61.89
2022-07-27T21:10:52.535Z,61.65
2022-07-27T21:14:03.040Z,61.15
2022-07-27T21:17:08.417Z,61.53
2022-07-27T21:20:15.779Z,60.70
2022-07-27T21:23:37.082Z,60.88
2022-07-27T21:26:43.417Z,60.45
2022-07-27T21:29:52.087Z,60.61
2022-07-27T21:32:58.341Z,60.05
2022-07-27T21:36:04.070Z,59.74
2022-07-27T21:39:10.692Z,59.85
2022-07-27T21:42:17.282Z,59.83
2022-07-27T21:45:26.802Z,59.74
2022-07-27T21:48:32.442Z,60.25
2022-07-27T21:51:39.288Z,59.51
2022-07-27T21:54:44.958Z,59.58
2022-07-27T21:57:51.497Z,59.60
2022-07-27T22:01:00.044Z,59.46
2022-07-27T22:04:08.665Z,59.28
2022-07-27T22:07:19.399Z,59.30
2022-07-27T22:10:25.955Z,59.29
2022-07-27T22:13:31.684Z,59.33
2022-07-27T22:16:41.408Z,59.06
2022-07-27T22:19:47.017Z,59.08
2022-07-27T22:22:53.954Z,59.28
2022-07-27T22:25:59.862Z,59.17
2022-07-27T22:29:08.560Z,59.13
2022-07-27T22:32:16.818Z,59.35
2022-07-27T22:35:23.122Z,59.60
2022-07-27T22:38:28.501Z,59.58
2022-07-27T22:41:34.749Z,59.45
2022-07-27T22:44:42.647Z,59.39
2022-07-27T22:47:51.766Z,59.61
2022-07-27T22:50:57.267Z,59.48
2022-07-27T22:54:03.765Z,59.72
2022-07-27T22:57:09.907Z,59.90
2022-07-27T23:00:18.781Z,59.80
2022-07-27T23:03:27.288Z,59.89
2022-07-27T23:06:33.548Z,60.18
2022-07-27T23:09:38.931Z,60.15
2022-07-27T23:12:45.432Z,59.83
2022-07-27T23:15:51.116Z,59.99
2022-07-27T23:19:00.188Z,60.06
2022-07-27T23:22:07.322Z,60.17
2022-07-27T23:25:17.918Z,60.42
2022-07-27T23:28:27.400Z,60.14
2022-07-27T23:31:33.803Z,59.78
2022-07-27T23:34:42.311Z,59.77
2022-07-27T23:37:48.531Z,59.78
2022-07-27T23:40:54.329Z,59.59
2022-07-27T23:44:00.715Z,59.68
2022-07-27T23:47:07.545Z,59.85
2022-07-27T23:50:18.053Z,59.97
2022-07-27T23:53:24.118Z,59.60
2022-07-27T23:56:30.592Z,59.72
2022-07-27T23:59:35.956Z,59.75
